SVA1428 OEJN-OEMA
Flight info
| Callsign | SVA1428 |
|---|---|
| Flight time | 0h 43m |
| Altitude | 29000 |
| Route | DATAP3D DATAP A424 RULEB/N0460F280 A424 DEGVU DEGVU1G |
| Aircraft | A320/M-SDE3FGHIRWY/LB1 |
Departure
| Time | 2026-04-18 11:15 |
|---|---|
| Airport | King Abdulaziz International Airport (OEJN) |
Arrival
| Time | 2026-04-18 11:58 |
|---|---|
| Airport | Prince Mohammad Bin Abdulaziz Airport (OEMA) |
| Time | Latitude | Longitude | Altitude | Speed | Heading |
|---|---|---|---|---|---|
| 2026-04-18 10:59 | 21.67196 | 39.17278 | 51 ft | 0 kts | 325° |
| 2026-04-18 11:04 | 21.67187 | 39.17286 | 50 ft | 2 kts | 325° |
| 2026-04-18 11:04 | 21.67173 | 39.17296 | 51 ft | 2 kts | 325° |
| 2026-04-18 11:05 | 21.67159 | 39.17306 | 47 ft | 2 kts | 325° |
| 2026-04-18 11:05 | 21.67145 | 39.17317 | 51 ft | 2 kts | 325° |
| 2026-04-18 11:05 | 21.67130 | 39.17326 | 48 ft | 3 kts | 352° |
| 2026-04-18 11:05 | 21.67113 | 39.17326 | 46 ft | 2 kts | 27° |
| 2026-04-18 11:06 | 21.67106 | 39.17321 | 50 ft | 0 kts | 41° |
| 2026-04-18 11:06 | 21.67110 | 39.17325 | 46 ft | 2 kts | 41° |
| 2026-04-18 11:06 | 21.67121 | 39.17336 | 51 ft | 2 kts | 41° |
| 2026-04-18 11:06 | 21.67137 | 39.17354 | 52 ft | 4 kts | 46° |
| 2026-04-18 11:07 | 21.67154 | 39.17373 | 52 ft | 3 kts | 46° |
| 2026-04-18 11:07 | 21.67164 | 39.17385 | 52 ft | 2 kts | 48° |
| 2026-04-18 11:07 | 21.67180 | 39.17408 | 52 ft | 5 kts | 57° |
| 2026-04-18 11:07 | 21.67194 | 39.17438 | 52 ft | 4 kts | 66° |
| 2026-04-18 11:08 | 21.67209 | 39.17480 | 51 ft | 6 kts | 68° |
| 2026-04-18 11:08 | 21.67224 | 39.17517 | 52 ft | 5 kts | 68° |
| 2026-04-18 11:08 | 21.67242 | 39.17552 | 52 ft | 11 kts | 45° |
| 2026-04-18 11:08 | 21.67330 | 39.17549 | 54 ft | 13 kts | 340° |
| 2026-04-18 11:09 | 21.67415 | 39.17516 | 52 ft | 12 kts | 340° |
| 2026-04-18 11:09 | 21.67509 | 39.17479 | 53 ft | 17 kts | 339° |
| 2026-04-18 11:09 | 21.67614 | 39.17436 | 52 ft | 16 kts | 339° |
| 2026-04-18 11:09 | 21.67716 | 39.17394 | 52 ft | 15 kts | 340° |
| 2026-04-18 11:10 | 21.67813 | 39.17355 | 51 ft | 14 kts | 339° |
| 2026-04-18 11:10 | 21.67913 | 39.17315 | 49 ft | 16 kts | 340° |
| 2026-04-18 11:10 | 21.68018 | 39.17274 | 50 ft | 16 kts | 339° |
| 2026-04-18 11:10 | 21.68122 | 39.17233 | 49 ft | 15 kts | 341° |
| 2026-04-18 11:11 | 21.68231 | 39.17191 | 48 ft | 21 kts | 340° |
| 2026-04-18 11:11 | 21.68368 | 39.17138 | 47 ft | 20 kts | 340° |
| 2026-04-18 11:11 | 21.68498 | 39.17088 | 47 ft | 19 kts | 342° |
| 2026-04-18 11:11 | 21.68620 | 39.17041 | 45 ft | 18 kts | 340° |
| 2026-04-18 11:12 | 21.68735 | 39.16995 | 44 ft | 17 kts | 340° |
| 2026-04-18 11:12 | 21.68842 | 39.16954 | 45 ft | 16 kts | 340° |
| 2026-04-18 11:12 | 21.68944 | 39.16911 | 44 ft | 15 kts | 339° |
| 2026-04-18 11:12 | 21.69045 | 39.16872 | 44 ft | 18 kts | 340° |
| 2026-04-18 11:13 | 21.69167 | 39.16825 | 43 ft | 18 kts | 340° |
| 2026-04-18 11:13 | 21.69284 | 39.16778 | 42 ft | 18 kts | 339° |
| 2026-04-18 11:13 | 21.69395 | 39.16733 | 42 ft | 17 kts | 340° |
| 2026-04-18 11:13 | 21.69500 | 39.16693 | 41 ft | 15 kts | 340° |
| 2026-04-18 11:14 | 21.69599 | 39.16655 | 41 ft | 15 kts | 340° |
| 2026-04-18 11:14 | 21.69695 | 39.16665 | 37 ft | 14 kts | 36° |
| 2026-04-18 11:14 | 21.69743 | 39.16751 | 40 ft | 13 kts | 75° |
| 2026-04-18 11:14 | 21.69726 | 39.16837 | 39 ft | 12 kts | 141° |
| 2026-04-18 11:15 | 21.69575 | 39.16900 | 39 ft | 52 kts | 160° |
| 2026-04-18 11:15 | 21.69023 | 39.17115 | 45 ft | 114 kts | 160° |
| 2026-04-18 11:15 | 21.68124 | 39.17474 | 139 ft | 153 kts | 160° |
| 2026-04-18 11:15 | 21.67145 | 39.17880 | 792 ft | 151 kts | 161° |
| 2026-04-18 11:16 | 21.66184 | 39.18325 | 1328 ft | 151 kts | 153° |
| 2026-04-18 11:16 | 21.65259 | 39.18872 | 1765 ft | 156 kts | 153° |
| 2026-04-18 11:16 | 21.64250 | 39.19502 | 1935 ft | 179 kts | 153° |
| 2026-04-18 11:16 | 21.63117 | 39.20255 | 2125 ft | 205 kts | 144° |
| 2026-04-18 11:17 | 21.62280 | 39.21618 | 2430 ft | 241 kts | 109° |
| 2026-04-18 11:17 | 21.62217 | 39.23523 | 2958 ft | 265 kts | 92° |
| 2026-04-18 11:17 | 21.62413 | 39.25518 | 3808 ft | 270 kts | 88° |
| 2026-04-18 11:17 | 21.62683 | 39.27525 | 4762 ft | 273 kts | 87° |
| 2026-04-18 11:18 | 21.62968 | 39.29561 | 5580 ft | 279 kts | 87° |
| 2026-04-18 11:18 | 21.63242 | 39.31603 | 5880 ft | 281 kts | 88° |
| 2026-04-18 11:18 | 21.63508 | 39.33678 | 5990 ft | 281 kts | 88° |
| 2026-04-18 11:18 | 21.63766 | 39.35758 | 6010 ft | 281 kts | 88° |
| 2026-04-18 11:19 | 21.64315 | 39.37795 | 6012 ft | 290 kts | 65° |
| 2026-04-18 11:19 | 21.65680 | 39.39423 | 6010 ft | 301 kts | 36° |
| 2026-04-18 11:19 | 21.67673 | 39.40175 | 6241 ft | 316 kts | 3° |
| 2026-04-18 11:19 | 21.69826 | 39.39816 | 7062 ft | 314 kts | 340° |
| 2026-04-18 11:20 | 21.71888 | 39.39048 | 7939 ft | 314 kts | 339° |
| 2026-04-18 11:20 | 21.73950 | 39.38250 | 8813 ft | 314 kts | 338° |
| 2026-04-18 11:20 | 21.75999 | 39.37446 | 9702 ft | 314 kts | 338° |
| 2026-04-18 11:20 | 21.78068 | 39.36628 | 10305 ft | 324 kts | 338° |
| 2026-04-18 11:21 | 21.80259 | 39.35757 | 10491 ft | 347 kts | 338° |
| 2026-04-18 11:21 | 21.82594 | 39.34829 | 10618 ft | 369 kts | 338° |
| 2026-04-18 11:21 | 21.85060 | 39.33855 | 10947 ft | 383 kts | 338° |
| 2026-04-18 11:21 | 21.87573 | 39.32866 | 11542 ft | 387 kts | 338° |
| 2026-04-18 11:22 | 21.90152 | 39.32013 | 12204 ft | 390 kts | 348° |
| 2026-04-18 11:22 | 21.92821 | 39.31763 | 12872 ft | 394 kts | 1° |
| 2026-04-18 11:22 | 21.95543 | 39.32197 | 13540 ft | 398 kts | 15° |
| 2026-04-18 11:22 | 21.98110 | 39.33322 | 14131 ft | 402 kts | 28° |
| 2026-04-18 11:23 | 22.00516 | 39.34899 | 14704 ft | 406 kts | 31° |
| 2026-04-18 11:23 | 22.02931 | 39.36506 | 15254 ft | 410 kts | 30° |
| 2026-04-18 11:23 | 22.05382 | 39.38133 | 15796 ft | 415 kts | 30° |
| 2026-04-18 11:23 | 22.07851 | 39.39766 | 16372 ft | 418 kts | 30° |
| 2026-04-18 11:24 | 22.10342 | 39.41411 | 16955 ft | 422 kts | 30° |
| 2026-04-18 11:24 | 22.12857 | 39.43060 | 17553 ft | 424 kts | 27° |
| 2026-04-18 11:24 | 22.15527 | 39.44402 | 18142 ft | 424 kts | 17° |
| 2026-04-18 11:24 | 22.18374 | 39.45224 | 18640 ft | 424 kts | 7° |
| 2026-04-18 11:25 | 22.21307 | 39.45530 | 19140 ft | 424 kts | 0° |
| 2026-04-18 11:25 | 22.24262 | 39.45719 | 19638 ft | 427 kts | 0° |
| 2026-04-18 11:25 | 22.27195 | 39.45919 | 20121 ft | 429 kts | 0° |
| 2026-04-18 11:25 | 22.30187 | 39.46129 | 20582 ft | 432 kts | 0° |
| 2026-04-18 11:26 | 22.33192 | 39.46342 | 21043 ft | 435 kts | 360° |
| 2026-04-18 11:26 | 22.36229 | 39.46558 | 21502 ft | 437 kts | 360° |
| 2026-04-18 11:26 | 22.39272 | 39.46773 | 21943 ft | 440 kts | 359° |
| 2026-04-18 11:26 | 22.42334 | 39.46988 | 22382 ft | 443 kts | 359° |
| 2026-04-18 11:27 | 22.45415 | 39.47203 | 22803 ft | 445 kts | 359° |
| 2026-04-18 11:27 | 22.48514 | 39.47418 | 23215 ft | 447 kts | 359° |
| 2026-04-18 11:27 | 22.51629 | 39.47635 | 23563 ft | 450 kts | 359° |
| 2026-04-18 11:27 | 22.54763 | 39.47853 | 23896 ft | 452 kts | 359° |
| 2026-04-18 11:28 | 22.56840 | 39.47998 | 24117 ft | 453 kts | 359° |
| 2026-04-18 11:28 | 22.61066 | 39.48294 | 24569 ft | 456 kts | 358° |
| 2026-04-18 11:28 | 22.64230 | 39.48563 | 24893 ft | 460 kts | 2° |
| 2026-04-18 11:28 | 22.67395 | 39.49276 | 25213 ft | 469 kts | 11° |
| 2026-04-18 11:29 | 22.69453 | 39.50028 | 25417 ft | 473 kts | 15° |
| 2026-04-18 11:29 | 22.73560 | 39.51632 | 25816 ft | 475 kts | 14° |
| 2026-04-18 11:29 | 22.76678 | 39.52843 | 26125 ft | 477 kts | 14° |
| 2026-04-18 11:29 | 22.79809 | 39.54057 | 26428 ft | 479 kts | 14° |
| 2026-04-18 11:30 | 22.81927 | 39.54878 | 26622 ft | 480 kts | 14° |
| 2026-04-18 11:30 | 22.85208 | 39.56150 | 26921 ft | 482 kts | 14° |
| 2026-04-18 11:30 | 22.88377 | 39.57375 | 27201 ft | 484 kts | 14° |
| 2026-04-18 11:30 | 22.91547 | 39.58599 | 27485 ft | 486 kts | 14° |
| 2026-04-18 11:31 | 22.94738 | 39.59835 | 27752 ft | 487 kts | 13° |
| 2026-04-18 11:31 | 22.97931 | 39.61072 | 28023 ft | 488 kts | 14° |
| 2026-04-18 11:31 | 23.01167 | 39.62127 | 28268 ft | 483 kts | 6° |
| 2026-04-18 11:31 | 23.04461 | 39.62664 | 28580 ft | 475 kts | 358° |
| 2026-04-18 11:32 | 23.07705 | 39.62844 | 28841 ft | 473 kts | 356° |
| 2026-04-18 11:32 | 23.10975 | 39.63012 | 28896 ft | 470 kts | 356° |
| 2026-04-18 11:32 | 23.17490 | 39.63349 | 28897 ft | 468 kts | 356° |
| 2026-04-18 11:33 | 23.23985 | 39.63688 | 28900 ft | 467 kts | 356° |
| 2026-04-18 11:33 | 23.30485 | 39.64026 | 28913 ft | 467 kts | 356° |
| 2026-04-18 11:34 | 23.36974 | 39.64362 | 28916 ft | 467 kts | 356° |
| 2026-04-18 11:34 | 23.43417 | 39.64705 | 28917 ft | 466 kts | 356° |
| 2026-04-18 11:35 | 23.49904 | 39.65043 | 28927 ft | 467 kts | 356° |
| 2026-04-18 11:35 | 23.56392 | 39.65373 | 28926 ft | 467 kts | 356° |
| 2026-04-18 11:36 | 23.62886 | 39.65707 | 28936 ft | 467 kts | 356° |
| 2026-04-18 11:36 | 23.69371 | 39.66111 | 28941 ft | 471 kts | 1° |
| 2026-04-18 11:37 | 23.75763 | 39.68077 | 28948 ft | 484 kts | 15° |
| 2026-04-18 11:37 | 23.82030 | 39.70784 | 28949 ft | 484 kts | 15° |
| 2026-04-18 11:38 | 23.88258 | 39.73443 | 28955 ft | 484 kts | 15° |
| 2026-04-18 11:38 | 23.91398 | 39.74788 | 28594 ft | 484 kts | 15° |
| 2026-04-18 11:38 | 23.94524 | 39.76134 | 27320 ft | 480 kts | 15° |
| 2026-04-18 11:39 | 23.97601 | 39.77468 | 26106 ft | 471 kts | 16° |
| 2026-04-18 11:39 | 24.00578 | 39.78764 | 25670 ft | 447 kts | 16° |
| 2026-04-18 11:39 | 24.03407 | 39.80000 | 25556 ft | 430 kts | 15° |
| 2026-04-18 11:39 | 24.06144 | 39.81186 | 25431 ft | 416 kts | 15° |
| 2026-04-18 11:40 | 24.08794 | 39.82324 | 25313 ft | 403 kts | 15° |
| 2026-04-18 11:40 | 24.11356 | 39.83420 | 25191 ft | 390 kts | 15° |
| 2026-04-18 11:40 | 24.13847 | 39.84490 | 25078 ft | 378 kts | 14° |
| 2026-04-18 11:40 | 24.16255 | 39.85525 | 24916 ft | 367 kts | 14° |
| 2026-04-18 11:41 | 24.18530 | 39.86501 | 24625 ft | 363 kts | 14° |
| 2026-04-18 11:41 | 24.20868 | 39.87499 | 24285 ft | 358 kts | 12° |
| 2026-04-18 11:41 | 24.23232 | 39.88123 | 24099 ft | 343 kts | 359° |
| 2026-04-18 11:41 | 24.25595 | 39.88200 | 23716 ft | 338 kts | 348° |
| 2026-04-18 11:42 | 24.27892 | 39.87788 | 23269 ft | 333 kts | 342° |
| 2026-04-18 11:42 | 24.30162 | 39.87297 | 22714 ft | 335 kts | 342° |
| 2026-04-18 11:42 | 24.32431 | 39.86821 | 22405 ft | 329 kts | 343° |
| 2026-04-18 11:42 | 24.34674 | 39.86358 | 21987 ft | 328 kts | 343° |
| 2026-04-18 11:43 | 24.36912 | 39.85894 | 21535 ft | 325 kts | 343° |
| 2026-04-18 11:43 | 24.39119 | 39.85436 | 20863 ft | 323 kts | 343° |
| 2026-04-18 11:43 | 24.41318 | 39.84978 | 20294 ft | 319 kts | 343° |
| 2026-04-18 11:43 | 24.43476 | 39.84527 | 19831 ft | 315 kts | 344° |
| 2026-04-18 11:44 | 24.45631 | 39.84076 | 19365 ft | 314 kts | 344° |
| 2026-04-18 11:44 | 24.47764 | 39.83625 | 18925 ft | 312 kts | 344° |
| 2026-04-18 11:44 | 24.49892 | 39.83165 | 18475 ft | 310 kts | 344° |
| 2026-04-18 11:44 | 24.52000 | 39.82705 | 17998 ft | 309 kts | 344° |
| 2026-04-18 11:45 | 24.54082 | 39.82256 | 17692 ft | 296 kts | 344° |
| 2026-04-18 11:45 | 24.56050 | 39.81840 | 17621 ft | 283 kts | 344° |
| 2026-04-18 11:45 | 24.57985 | 39.81428 | 17332 ft | 285 kts | 344° |
| 2026-04-18 11:45 | 24.59940 | 39.81010 | 16934 ft | 288 kts | 344° |
| 2026-04-18 11:46 | 24.61913 | 39.80588 | 16551 ft | 290 kts | 344° |
| 2026-04-18 11:46 | 24.63877 | 39.80170 | 16176 ft | 292 kts | 344° |
| 2026-04-18 11:46 | 24.65880 | 39.79743 | 15789 ft | 295 kts | 344° |
| 2026-04-18 11:46 | 24.67910 | 39.79311 | 15396 ft | 298 kts | 345° |
| 2026-04-18 11:47 | 24.69955 | 39.78877 | 15005 ft | 301 kts | 345° |
| 2026-04-18 11:47 | 24.72018 | 39.78438 | 14604 ft | 304 kts | 345° |
| 2026-04-18 11:47 | 24.74106 | 39.77993 | 14205 ft | 307 kts | 345° |
| 2026-04-18 11:47 | 24.76216 | 39.77543 | 13796 ft | 311 kts | 346° |
| 2026-04-18 11:48 | 24.78337 | 39.77093 | 13352 ft | 307 kts | 346° |
| 2026-04-18 11:48 | 24.80408 | 39.76656 | 13016 ft | 297 kts | 346° |
| 2026-04-18 11:48 | 24.82408 | 39.76236 | 12658 ft | 290 kts | 346° |
| 2026-04-18 11:48 | 24.84370 | 39.75823 | 12261 ft | 283 kts | 345° |
| 2026-04-18 11:49 | 24.86287 | 39.75417 | 11861 ft | 278 kts | 345° |
| 2026-04-18 11:49 | 24.88168 | 39.75018 | 11467 ft | 273 kts | 345° |
| 2026-04-18 11:49 | 24.90013 | 39.74554 | 11092 ft | 270 kts | 333° |
| 2026-04-18 11:49 | 24.91483 | 39.73425 | 10712 ft | 258 kts | 304° |
| 2026-04-18 11:50 | 24.92264 | 39.71715 | 10338 ft | 247 kts | 276° |
| 2026-04-18 11:50 | 24.92253 | 39.69866 | 9955 ft | 241 kts | 255° |
| 2026-04-18 11:50 | 24.91876 | 39.68053 | 9562 ft | 242 kts | 250° |
| 2026-04-18 11:50 | 24.91168 | 39.66435 | 9187 ft | 229 kts | 232° |
| 2026-04-18 11:51 | 24.90083 | 39.65204 | 8714 ft | 224 kts | 216° |
| 2026-04-18 11:51 | 24.88691 | 39.64399 | 8136 ft | 230 kts | 200° |
| 2026-04-18 11:51 | 24.87108 | 39.64139 | 7680 ft | 229 kts | 183° |
| 2026-04-18 11:51 | 24.85551 | 39.64384 | 7374 ft | 222 kts | 175° |
| 2026-04-18 11:52 | 24.84093 | 39.64700 | 7117 ft | 207 kts | 175° |
| 2026-04-18 11:52 | 24.82700 | 39.64998 | 6870 ft | 200 kts | 176° |
| 2026-04-18 11:52 | 24.81365 | 39.65282 | 6621 ft | 194 kts | 174° |
| 2026-04-18 11:52 | 24.80050 | 39.65561 | 6376 ft | 190 kts | 174° |
| 2026-04-18 11:53 | 24.78805 | 39.65828 | 6159 ft | 182 kts | 175° |
| 2026-04-18 11:53 | 24.77575 | 39.66089 | 5918 ft | 178 kts | 174° |
| 2026-04-18 11:53 | 24.76381 | 39.66344 | 5693 ft | 172 kts | 176° |
| 2026-04-18 11:53 | 24.75223 | 39.66591 | 5473 ft | 168 kts | 175° |
| 2026-04-18 11:54 | 24.74076 | 39.66834 | 5259 ft | 167 kts | 175° |
| 2026-04-18 11:54 | 24.72937 | 39.67077 | 5045 ft | 166 kts | 174° |
| 2026-04-18 11:54 | 24.71801 | 39.67318 | 4848 ft | 167 kts | 176° |
| 2026-04-18 11:54 | 24.70671 | 39.67559 | 4640 ft | 165 kts | 178° |
| 2026-04-18 11:55 | 24.69539 | 39.67800 | 4430 ft | 165 kts | 176° |
| 2026-04-18 11:55 | 24.68431 | 39.68037 | 4224 ft | 160 kts | 177° |
| 2026-04-18 11:55 | 24.67350 | 39.68267 | 4026 ft | 155 kts | 177° |
| 2026-04-18 11:55 | 24.66309 | 39.68489 | 3828 ft | 149 kts | 176° |
| 2026-04-18 11:56 | 24.65305 | 39.68703 | 3649 ft | 146 kts | 178° |
| 2026-04-18 11:56 | 24.64323 | 39.68911 | 3471 ft | 145 kts | 175° |
| 2026-04-18 11:56 | 24.63345 | 39.69119 | 3286 ft | 142 kts | 177° |
| 2026-04-18 11:56 | 24.62372 | 39.69325 | 3104 ft | 145 kts | 175° |
| 2026-04-18 11:57 | 24.61371 | 39.69537 | 2911 ft | 148 kts | 174° |
| 2026-04-18 11:57 | 24.60360 | 39.69761 | 2722 ft | 149 kts | 170° |
| 2026-04-18 11:57 | 24.59351 | 39.69994 | 2520 ft | 147 kts | 175° |
| 2026-04-18 11:57 | 24.58346 | 39.70191 | 2351 ft | 147 kts | 173° |
| 2026-04-18 11:58 | 24.57351 | 39.70404 | 2165 ft | 144 kts | 173° |
| 2026-04-18 11:58 | 24.56417 | 39.70605 | 2140 ft | 125 kts | 173° |
| 2026-04-18 11:58 | 24.55680 | 39.70750 | 2122 ft | 68 kts | 169° |
| 2026-04-18 11:58 | 24.55462 | 39.70800 | 2121 ft | 25 kts | 163° |
| 2026-04-18 11:59 | 24.55307 | 39.70880 | 2120 ft | 26 kts | 144° |
| 2026-04-18 11:59 | 24.55211 | 39.70981 | 2129 ft | 12 kts | 107° |
| 2026-04-18 11:59 | 24.55218 | 39.71056 | 2136 ft | 9 kts | 78° |
| 2026-04-18 11:59 | 24.55236 | 39.71160 | 2139 ft | 15 kts | 79° |
| 2026-04-18 12:00 | 24.55208 | 39.71239 | 2140 ft | 12 kts | 163° |
| 2026-04-18 12:00 | 24.55122 | 39.71259 | 2140 ft | 8 kts | 157° |
| 2026-04-18 12:00 | 24.55119 | 39.71294 | 2140 ft | 4 kts | 88° |
| 2026-04-18 12:00 | 24.55120 | 39.71314 | 2141 ft | 2 kts | 78° |
| 2026-04-18 12:01 | 24.55123 | 39.71332 | 2141 ft | 0 kts | 80° |